createdAt,value
2022-08-21T00:00:53.859Z,18.49
2022-08-21T00:01:53.873Z,18.50
2022-08-21T00:02:53.914Z,18.53
2022-08-21T00:03:53.803Z,18.56
2022-08-21T00:04:57.267Z,18.58
2022-08-21T00:05:53.777Z,18.60
2022-08-21T00:06:53.766Z,18.63
2022-08-21T00:07:53.836Z,18.63
2022-08-21T00:08:54.709Z,18.68
2022-08-21T00:09:53.733Z,18.66
2022-08-21T00:10:53.726Z,18.63
2022-08-21T00:11:53.718Z,18.56
2022-08-21T00:12:53.697Z,18.53
2022-08-21T00:13:53.786Z,18.45
2022-08-21T00:14:58.034Z,18.43
2022-08-21T00:15:53.674Z,18.40
2022-08-21T00:16:53.656Z,18.40
2022-08-21T00:17:53.663Z,18.41
2022-08-21T00:18:53.626Z,18.43
2022-08-21T00:19:53.640Z,18.43
2022-08-21T00:20:53.618Z,18.41
2022-08-21T00:21:53.595Z,18.40
2022-08-21T00:22:53.592Z,18.37
2022-08-21T00:23:53.590Z,18.37
2022-08-21T00:24:53.570Z,18.37
2022-08-21T00:25:53.572Z,18.38
2022-08-21T00:26:53.538Z,18.35
2022-08-21T00:27:53.550Z,18.31
2022-08-21T00:28:53.547Z,18.29
2022-08-21T00:29:53.513Z,18.26
2022-08-21T00:30:53.491Z,18.19
2022-08-21T00:31:53.512Z,18.13
2022-08-21T00:32:53.472Z,18.07
2022-08-21T00:34:00.535Z,18.03
2022-08-21T00:34:54.446Z,18.00
2022-08-21T00:35:53.475Z,17.97
2022-08-21T00:36:53.423Z,17.92
2022-08-21T00:37:53.425Z,17.90
2022-08-21T00:38:53.405Z,17.89
2022-08-21T00:39:53.447Z,17.90
2022-08-21T00:40:53.378Z,17.94
2022-08-21T00:41:53.401Z,17.94
2022-08-21T00:42:53.953Z,17.94
2022-08-21T00:43:53.378Z,17.94
2022-08-21T00:44:53.363Z,17.95
2022-08-21T00:45:53.338Z,17.97
2022-08-21T00:46:53.313Z,17.92
2022-08-21T00:47:53.329Z,17.87
2022-08-21T00:48:53.298Z,17.80
2022-08-21T00:49:53.304Z,17.74
2022-08-21T00:50:53.281Z,17.67
2022-08-21T00:51:53.282Z,17.57
2022-08-21T00:52:53.298Z,17.49
2022-08-21T00:53:53.656Z,17.46
2022-08-21T00:54:53.270Z,17.42
2022-08-21T00:55:53.239Z,17.36
2022-08-21T00:56:53.221Z,17.29
2022-08-21T00:57:53.202Z,17.20
2022-08-21T00:58:53.555Z,17.12
2022-08-21T00:59:53.180Z,17.08
2022-08-21T01:00:53.240Z,17.01
2022-08-21T01:01:53.181Z,16.99
2022-08-21T01:02:53.174Z,16.94
2022-08-21T01:03:53.140Z,16.93
2022-08-21T01:04:53.132Z,16.91
2022-08-21T01:05:53.098Z,16.89
2022-08-21T01:06:53.089Z,16.90
2022-08-21T01:07:53.082Z,16.90
2022-08-21T01:08:53.093Z,16.90
2022-08-21T01:09:53.090Z,16.87
2022-08-21T01:10:54.666Z,16.83
2022-08-21T01:11:53.036Z,16.78
2022-08-21T01:12:53.025Z,16.76
2022-08-21T01:13:53.050Z,16.72
2022-08-21T01:14:53.000Z,16.71
2022-08-21T01:15:52.997Z,16.69
2022-08-21T01:16:52.978Z,16.66
2022-08-21T01:17:52.969Z,16.65
2022-08-21T01:18:52.958Z,16.65
2022-08-21T01:19:52.989Z,16.66
2022-08-21T01:20:52.936Z,16.66
2022-08-21T01:21:52.950Z,16.66
2022-08-21T01:22:52.919Z,16.65
2022-08-21T01:23:52.900Z,16.64
2022-08-21T01:24:52.889Z,16.60
2022-08-21T01:25:52.914Z,16.57
2022-08-21T01:26:52.896Z,16.56
2022-08-21T01:27:52.892Z,16.54
2022-08-21T01:28:52.908Z,16.51
2022-08-21T01:29:52.851Z,16.49
2022-08-21T01:30:52.823Z,16.49
2022-08-21T01:31:52.834Z,16.49
2022-08-21T01:32:52.806Z,16.49
2022-08-21T01:33:52.824Z,16.47
2022-08-21T01:34:52.797Z,16.43
2022-08-21T01:35:52.783Z,16.41
2022-08-21T01:36:52.784Z,16.38
2022-08-21T01:37:52.765Z,16.33
2022-08-21T01:38:52.732Z,16.26
2022-08-21T01:39:52.793Z,16.20
2022-08-21T01:40:52.718Z,16.15
2022-08-21T01:41:52.711Z,16.09
2022-08-21T01:42:52.695Z,16.02
2022-08-21T01:43:52.707Z,16.00
2022-08-21T01:44:54.729Z,15.97
2022-08-21T01:45:52.688Z,15.94
2022-08-21T01:46:52.656Z,15.91
2022-08-21T01:47:52.637Z,15.88
2022-08-21T01:48:52.629Z,15.86
2022-08-21T01:49:52.618Z,15.88
2022-08-21T01:50:52.870Z,15.86
2022-08-21T01:51:52.610Z,15.86
2022-08-21T01:52:52.588Z,15.86
2022-08-21T01:53:52.574Z,15.90
2022-08-21T01:54:55.036Z,15.91
2022-08-21T01:55:52.553Z,15.91
2022-08-21T01:56:52.568Z,15.90
2022-08-21T01:57:52.538Z,15.90
2022-08-21T01:58:52.521Z,15.86
2022-08-21T01:59:52.521Z,15.83
2022-08-21T02:00:52.558Z,15.82
2022-08-21T02:01:52.482Z,15.80
2022-08-21T02:02:52.485Z,15.80
2022-08-21T02:03:53.414Z,15.76
2022-08-21T02:04:52.450Z,15.77
2022-08-21T02:05:53.383Z,15.79
2022-08-21T02:06:52.452Z,15.76
2022-08-21T02:07:52.415Z,15.73
2022-08-21T02:08:52.423Z,15.70
2022-08-21T02:09:52.434Z,15.67
2022-08-21T02:10:52.396Z,15.65
2022-08-21T02:11:52.389Z,15.64
2022-08-21T02:12:52.416Z,15.61
2022-08-21T02:13:52.360Z,15.59
2022-08-21T02:14:52.340Z,15.57
2022-08-21T02:15:52.345Z,15.57
2022-08-21T02:16:52.327Z,15.55
2022-08-21T02:17:53.324Z,15.54
2022-08-21T02:18:52.292Z,15.54
2022-08-21T02:19:52.277Z,15.54
2022-08-21T02:20:55.657Z,15.55
2022-08-21T02:21:52.266Z,15.54
2022-08-21T02:22:52.247Z,15.55
2022-08-21T02:23:52.228Z,15.57
2022-08-21T02:24:54.433Z,15.58
2022-08-21T02:25:52.219Z,15.59
2022-08-21T02:26:52.241Z,15.64
2022-08-21T02:27:52.240Z,15.67
2022-08-21T02:28:52.190Z,15.68
2022-08-21T02:29:52.181Z,15.73
2022-08-21T02:30:52.161Z,15.75
2022-08-21T02:31:52.178Z,15.75
2022-08-21T02:32:52.239Z,15.76
2022-08-21T02:33:52.167Z,15.75
2022-08-21T02:34:52.137Z,15.75
2022-08-21T02:35:52.102Z,15.73
2022-08-21T02:36:59.664Z,15.68
2022-08-21T02:37:53.074Z,15.68
2022-08-21T02:38:52.073Z,15.67
2022-08-21T02:39:52.173Z,15.65
2022-08-21T02:40:52.072Z,15.64
2022-08-21T02:41:52.044Z,15.62
2022-08-21T02:42:52.138Z,15.62
2022-08-21T02:43:52.063Z,15.64
2022-08-21T02:44:52.015Z,15.64
2022-08-21T02:45:51.997Z,15.64
2022-08-21T02:46:51.992Z,15.64
2022-08-21T02:47:52.005Z,15.62
2022-08-21T02:48:51.967Z,15.62
2022-08-21T02:49:51.971Z,15.62
2022-08-21T02:50:51.946Z,15.62
2022-08-21T02:51:51.927Z,15.59
2022-08-21T02:52:51.970Z,15.57
2022-08-21T02:53:51.909Z,15.55
2022-08-21T02:54:51.916Z,15.55
2022-08-21T02:55:51.908Z,15.55
2022-08-21T02:56:51.871Z,15.55
2022-08-21T02:57:51.901Z,15.51
2022-08-21T02:58:51.883Z,15.49
2022-08-21T02:59:51.848Z,15.49
2022-08-21T03:00:51.830Z,15.52
2022-08-21T03:01:51.864Z,15.54
2022-08-21T03:02:51.850Z,15.57
2022-08-21T03:03:51.821Z,15.55
2022-08-21T03:04:51.793Z,15.51
2022-08-21T03:05:51.781Z,15.47
2022-08-21T03:06:51.797Z,15.44
2022-08-21T03:07:51.760Z,15.44
2022-08-21T03:08:51.760Z,15.43
2022-08-21T03:09:55.685Z,15.42
2022-08-21T03:10:51.720Z,15.42
2022-08-21T03:11:51.703Z,15.37
2022-08-21T03:12:51.731Z,15.35
2022-08-21T03:13:51.682Z,15.35
2022-08-21T03:14:51.717Z,15.35
2022-08-21T03:15:51.665Z,15.35
2022-08-21T03:16:51.674Z,15.35
2022-08-21T03:17:51.643Z,15.33
2022-08-21T03:18:51.624Z,15.31
2022-08-21T03:19:51.605Z,15.33
2022-08-21T03:20:51.656Z,15.31
2022-08-21T03:21:51.585Z,15.33
2022-08-21T03:22:52.908Z,15.33
2022-08-21T03:23:51.575Z,15.35
2022-08-21T03:24:51.566Z,15.36
2022-08-21T03:25:51.548Z,15.35
2022-08-21T03:26:51.567Z,15.35
2022-08-21T03:27:52.636Z,15.35
2022-08-21T03:28:51.541Z,15.36
2022-08-21T03:29:51.508Z,15.37
2022-08-21T03:30:51.496Z,15.37
2022-08-21T03:31:51.489Z,15.39
2022-08-21T03:32:52.460Z,15.40
2022-08-21T03:33:51.462Z,15.42
2022-08-21T03:34:51.448Z,15.43
2022-08-21T03:35:51.439Z,15.43
2022-08-21T03:36:51.433Z,15.44
2022-08-21T03:37:51.420Z,15.44
2022-08-21T03:38:51.426Z,15.46
2022-08-21T03:39:51.413Z,15.46
2022-08-21T03:40:51.401Z,15.44
2022-08-21T03:41:51.392Z,15.43
2022-08-21T03:42:51.407Z,15.40
2022-08-21T03:43:51.407Z,15.35
2022-08-21T03:44:51.340Z,15.29
2022-08-21T03:45:52.640Z,15.29
2022-08-21T03:46:51.313Z,15.29
2022-08-21T03:47:51.327Z,15.33
2022-08-21T03:48:51.292Z,15.33
2022-08-21T03:49:51.314Z,15.31
2022-08-21T03:50:51.282Z,15.31
2022-08-21T03:51:59.177Z,15.27
2022-08-21T03:52:52.254Z,15.25
2022-08-21T03:53:51.234Z,15.21
2022-08-21T03:54:51.233Z,15.18
2022-08-21T03:55:51.246Z,15.11
2022-08-21T03:56:51.239Z,15.09
2022-08-21T03:57:51.185Z,15.03
2022-08-21T03:58:51.186Z,14.99
2022-08-21T03:59:51.171Z,14.96
2022-08-21T04:00:51.167Z,14.94
2022-08-21T04:01:51.182Z,14.92
2022-08-21T04:02:51.282Z,14.91
2022-08-21T04:03:51.129Z,14.89
2022-08-21T04:04:51.121Z,14.86
2022-08-21T04:05:51.142Z,14.85
2022-08-21T04:06:51.098Z,14.85
2022-08-21T04:07:51.110Z,14.82
2022-08-21T04:08:51.116Z,14.85
2022-08-21T04:09:51.074Z,14.86
2022-08-21T04:10:51.062Z,14.88
2022-08-21T04:11:51.059Z,14.88
2022-08-21T04:12:51.039Z,14.88
2022-08-21T04:13:51.029Z,14.89
2022-08-21T04:14:51.055Z,14.89
2022-08-21T04:15:50.992Z,14.88
2022-08-21T04:16:50.983Z,14.91
2022-08-21T04:17:50.961Z,14.94
2022-08-21T04:18:50.963Z,14.92
2022-08-21T04:19:53.826Z,14.89
2022-08-21T04:20:50.980Z,14.85
2022-08-21T04:21:50.950Z,14.82
2022-08-21T04:22:50.940Z,14.81
2022-08-21T04:23:50.904Z,14.79
2022-08-21T04:24:50.901Z,14.77
2022-08-21T04:25:50.875Z,14.77
2022-08-21T04:26:50.909Z,14.73
2022-08-21T04:27:50.873Z,14.70
2022-08-21T04:28:50.888Z,14.70
2022-08-21T04:29:50.871Z,14.69
2022-08-21T04:30:50.851Z,14.70
2022-08-21T04:31:50.823Z,14.73
2022-08-21T04:32:50.889Z,14.72
2022-08-21T04:33:50.822Z,14.73
2022-08-21T04:34:50.790Z,14.77
2022-08-21T04:35:51.739Z,14.78
2022-08-21T04:36:50.771Z,14.81
2022-08-21T04:37:50.796Z,14.81
2022-08-21T04:38:50.774Z,14.84
2022-08-21T04:39:53.559Z,14.84
2022-08-21T04:40:50.755Z,14.84
2022-08-21T04:41:50.697Z,14.84
2022-08-21T04:42:50.859Z,14.86
2022-08-21T04:43:50.696Z,14.88
2022-08-21T04:44:50.705Z,14.89
2022-08-21T04:45:50.661Z,14.91
2022-08-21T04:46:50.646Z,14.92
2022-08-21T04:47:52.711Z,14.92
2022-08-21T04:48:50.629Z,14.91
2022-08-21T04:49:50.605Z,14.89
2022-08-21T04:50:50.618Z,14.88
2022-08-21T04:51:51.555Z,14.86
2022-08-21T04:52:50.595Z,14.85
2022-08-21T04:53:50.618Z,14.85
2022-08-21T04:54:54.719Z,14.85
2022-08-21T04:55:50.572Z,14.85
2022-08-21T04:56:50.542Z,14.86
2022-08-21T04:57:50.542Z,14.88
2022-08-21T04:58:50.523Z,14.86
2022-08-21T04:59:50.536Z,14.88
2022-08-21T05:00:50.525Z,14.91
2022-08-21T05:01:50.546Z,14.89
2022-08-21T05:02:50.480Z,14.86
2022-08-21T05:03:50.475Z,14.85
2022-08-21T05:04:50.457Z,14.86
2022-08-21T05:05:50.483Z,14.86
2022-08-21T05:06:50.469Z,14.88
2022-08-21T05:07:50.418Z,14.88
2022-08-21T05:08:50.430Z,14.88
2022-08-21T05:09:51.407Z,14.91
2022-08-21T05:10:50.441Z,14.94
2022-08-21T05:11:50.397Z,14.97
2022-08-21T05:12:50.401Z,14.99
2022-08-21T05:13:56.310Z,15.00
2022-08-21T05:14:51.330Z,15.02
2022-08-21T05:15:50.329Z,15.04
2022-08-21T05:16:50.357Z,15.04
2022-08-21T05:17:55.505Z,15.06
2022-08-21T05:18:51.327Z,15.09
2022-08-21T05:19:50.299Z,15.10
2022-08-21T05:20:50.349Z,15.14
2022-08-21T05:21:50.292Z,15.17
2022-08-21T05:22:50.252Z,15.19
2022-08-21T05:23:50.271Z,15.21
2022-08-21T05:24:50.242Z,15.22
2022-08-21T05:25:50.239Z,15.22
2022-08-21T05:26:50.262Z,15.24
2022-08-21T05:27:50.191Z,15.25
2022-08-21T05:28:50.175Z,15.27
2022-08-21T05:29:50.214Z,15.28
2022-08-21T05:30:50.176Z,15.29
2022-08-21T05:31:50.156Z,15.31
2022-08-21T05:32:50.131Z,15.37
2022-08-21T05:33:50.141Z,15.37
2022-08-21T05:34:50.163Z,15.39
2022-08-21T05:35:50.094Z,15.42
2022-08-21T05:36:50.090Z,15.43
2022-08-21T05:37:50.068Z,15.46
2022-08-21T05:38:50.104Z,15.47
2022-08-21T05:40:05.546Z,15.49
2022-08-21T05:40:51.121Z,15.52
2022-08-21T05:41:50.056Z,15.55
2022-08-21T05:42:54.482Z,15.58
2022-08-21T05:43:51.094Z,15.58
2022-08-21T05:44:50.027Z,15.61
2022-08-21T05:45:49.988Z,15.64
2022-08-21T05:46:49.977Z,15.68
2022-08-21T05:47:49.962Z,15.73
2022-08-21T05:48:49.987Z,15.75
2022-08-21T05:49:50.006Z,15.77
2022-08-21T05:50:50.892Z,15.80
2022-08-21T05:51:49.948Z,15.84
2022-08-21T05:52:49.934Z,15.88
2022-08-21T05:53:49.896Z,15.91
2022-08-21T05:54:49.913Z,15.94
2022-08-21T05:55:49.949Z,15.98
2022-08-21T05:56:50.868Z,16.02
2022-08-21T05:57:49.884Z,16.05
2022-08-21T05:58:49.865Z,16.09
2022-08-21T05:59:49.853Z,16.12
2022-08-21T06:00:49.832Z,16.16
2022-08-21T06:01:49.891Z,16.21
2022-08-21T06:02:49.812Z,16.23
2022-08-21T06:03:50.747Z,16.26
2022-08-21T06:04:49.785Z,16.29
2022-08-21T06:05:49.775Z,16.32
2022-08-21T06:06:49.774Z,16.36
2022-08-21T06:07:49.810Z,16.41
2022-08-21T06:08:49.757Z,16.43
2022-08-21T06:09:49.731Z,16.47
2022-08-21T06:10:49.748Z,16.50
2022-08-21T06:11:49.708Z,16.54
2022-08-21T06:12:49.694Z,16.58
2022-08-21T06:13:49.727Z,16.60
2022-08-21T06:14:49.700Z,16.64
2022-08-21T06:15:49.676Z,16.68
2022-08-21T06:16:50.610Z,16.72
2022-08-21T06:17:49.636Z,16.74
2022-08-21T06:18:49.640Z,16.79
2022-08-21T06:19:49.650Z,16.83
2022-08-21T06:20:49.616Z,16.87
2022-08-21T06:21:49.642Z,16.93
2022-08-21T06:22:49.590Z,16.96
2022-08-21T06:23:49.588Z,17.01
2022-08-21T06:24:49.572Z,17.06
2022-08-21T06:25:49.547Z,17.08
2022-08-21T06:26:49.569Z,17.12
2022-08-21T06:27:49.560Z,17.16
2022-08-21T06:28:49.521Z,17.22
2022-08-21T06:29:49.537Z,17.26
2022-08-21T06:30:49.502Z,17.29
2022-08-21T06:31:49.480Z,17.31
2022-08-21T06:32:49.475Z,17.36
2022-08-21T06:33:49.482Z,17.41
2022-08-21T06:34:49.442Z,17.45
2022-08-21T06:35:49.472Z,17.48
2022-08-21T06:36:49.427Z,17.49
2022-08-21T06:37:49.420Z,17.52
2022-08-21T06:38:51.669Z,17.54
2022-08-21T06:39:49.420Z,17.59
2022-08-21T06:40:49.384Z,17.63
2022-08-21T06:41:49.418Z,17.65
2022-08-21T06:42:49.389Z,17.68
2022-08-21T06:43:49.345Z,17.68
2022-08-21T06:44:49.384Z,17.71
2022-08-21T06:45:49.349Z,17.71
2022-08-21T06:46:49.356Z,17.74
2022-08-21T06:47:49.300Z,17.74
2022-08-21T06:48:49.294Z,17.76
2022-08-21T06:49:49.502Z,17.79
2022-08-21T06:50:49.287Z,17.80
2022-08-21T06:51:49.290Z,17.82
2022-08-21T06:52:49.326Z,17.83
2022-08-21T06:53:49.258Z,17.85
2022-08-21T06:54:49.263Z,17.86
2022-08-21T06:55:49.229Z,17.89
2022-08-21T06:56:49.227Z,17.90
2022-08-21T06:57:52.385Z,17.92
2022-08-21T06:58:49.226Z,17.94
2022-08-21T06:59:50.151Z,17.95
2022-08-21T07:00:49.169Z,18.00
2022-08-21T07:01:49.240Z,18.01
2022-08-21T07:02:49.145Z,18.01
2022-08-21T07:03:49.182Z,18.04
2022-08-21T07:04:49.118Z,18.05
2022-08-21T07:05:49.122Z,18.07
2022-08-21T07:06:49.098Z,18.11
2022-08-21T07:07:49.083Z,18.13
2022-08-21T07:08:49.083Z,18.18
2022-08-21T07:09:49.109Z,18.19
2022-08-21T07:10:49.056Z,18.25
2022-08-21T07:11:49.053Z,18.26
2022-08-21T07:12:49.025Z,18.31
2022-08-21T07:13:49.032Z,18.35
2022-08-21T07:14:49.003Z,18.38
2022-08-21T07:15:49.024Z,18.41
2022-08-21T07:16:48.997Z,18.41
2022-08-21T07:17:48.983Z,18.43
2022-08-21T07:18:48.965Z,18.44
2022-08-21T07:19:48.964Z,18.44
2022-08-21T07:20:48.981Z,18.45
2022-08-21T07:21:48.980Z,18.49
2022-08-21T07:22:48.924Z,18.52
2022-08-21T07:23:48.906Z,18.53
2022-08-21T07:24:48.899Z,18.55
2022-08-21T07:25:48.915Z,18.55
2022-08-21T07:26:48.907Z,18.59
2022-08-21T07:27:48.866Z,18.62
2022-08-21T07:28:48.858Z,18.65
2022-08-21T07:29:48.849Z,18.70
2022-08-21T07:30:48.859Z,18.73
2022-08-21T07:31:48.831Z,18.77
2022-08-21T07:32:48.876Z,18.81
2022-08-21T07:33:48.810Z,18.86
2022-08-21T07:34:48.788Z,18.86
2022-08-21T07:35:48.802Z,18.89
2022-08-21T07:36:48.795Z,18.95
2022-08-21T07:37:48.792Z,18.98
2022-08-21T07:38:48.756Z,19.00
2022-08-21T07:39:48.824Z,19.04
2022-08-21T07:40:48.721Z,19.09
2022-08-21T07:41:48.727Z,19.12
2022-08-21T07:42:48.703Z,19.14
2022-08-21T07:43:48.736Z,19.15
2022-08-21T07:44:49.625Z,19.19
2022-08-21T07:45:48.689Z,19.26
2022-08-21T07:46:48.721Z,19.27
2022-08-21T07:47:48.650Z,19.27
2022-08-21T07:48:48.641Z,19.30
2022-08-21T07:49:48.847Z,19.33
2022-08-21T07:50:48.635Z,19.36
2022-08-21T07:51:48.647Z,19.39
2022-08-21T07:52:48.588Z,19.41
2022-08-21T07:53:48.625Z,19.44
2022-08-21T07:54:48.625Z,19.47
2022-08-21T07:55:48.584Z,19.49
2022-08-21T07:56:48.559Z,19.49
2022-08-21T07:57:48.567Z,19.51
2022-08-21T07:58:48.529Z,19.52
2022-08-21T07:59:48.557Z,19.54
2022-08-21T08:00:48.500Z,19.56
2022-08-21T08:01:48.509Z,19.62
2022-08-21T08:02:48.519Z,19.66
2022-08-21T08:03:48.481Z,19.69
2022-08-21T08:04:50.777Z,19.69
2022-08-21T08:05:48.490Z,19.69
2022-08-21T08:06:48.435Z,19.70
2022-08-21T08:07:48.431Z,19.73
2022-08-21T08:08:48.425Z,19.76
2022-08-21T08:09:48.416Z,19.81
2022-08-21T08:10:48.435Z,19.84
2022-08-21T08:11:48.393Z,19.89
2022-08-21T08:12:48.384Z,19.89
2022-08-21T08:13:48.410Z,19.92
2022-08-21T08:14:48.377Z,19.92
2022-08-21T08:15:48.373Z,19.95
2022-08-21T08:16:48.342Z,19.96
2022-08-21T08:17:48.335Z,19.96
2022-08-21T08:18:48.309Z,20.00
2022-08-21T08:19:48.297Z,20.02
2022-08-21T08:20:48.311Z,20.03
2022-08-21T08:21:48.277Z,20.06
2022-08-21T08:22:50.126Z,20.10
2022-08-21T08:23:48.258Z,20.11
2022-08-21T08:24:48.253Z,20.14
2022-08-21T08:25:48.242Z,20.19
2022-08-21T08:26:49.008Z,20.22
2022-08-21T08:27:49.236Z,20.24
2022-08-21T08:28:48.200Z,20.29
2022-08-21T08:29:48.209Z,20.32
2022-08-21T08:30:48.186Z,20.37
2022-08-21T08:31:48.197Z,20.44
2022-08-21T08:32:48.222Z,20.50
2022-08-21T08:33:48.151Z,20.55
2022-08-21T08:34:48.168Z,20.60
2022-08-21T08:35:48.150Z,20.63
2022-08-21T08:36:48.111Z,20.67
2022-08-21T08:37:52.366Z,20.69
2022-08-21T08:38:48.141Z,20.74
2022-08-21T08:39:48.166Z,20.75
2022-08-21T08:40:48.084Z,20.77
2022-08-21T08:41:48.063Z,20.80
2022-08-21T08:42:48.043Z,20.81
2022-08-21T08:43:48.052Z,20.82
2022-08-21T08:44:48.057Z,20.88
2022-08-21T08:45:48.019Z,20.96
2022-08-21T08:46:48.027Z,20.99
2022-08-21T08:47:48.036Z,21.05
2022-08-21T08:48:52.882Z,21.03
2022-08-21T08:49:47.975Z,21.06
2022-08-21T08:50:47.956Z,21.09
2022-08-21T08:51:47.974Z,21.09
2022-08-21T08:52:48.932Z,21.06
2022-08-21T08:53:47.947Z,21.06
2022-08-21T08:54:47.912Z,21.06
2022-08-21T08:55:47.940Z,21.05
2022-08-21T08:56:47.895Z,21.02
2022-08-21T08:57:49.389Z,21.02
2022-08-21T08:58:47.867Z,21.02
2022-08-21T08:59:47.864Z,21.02
2022-08-21T09:00:47.918Z,21.05
2022-08-21T09:01:47.946Z,21.11
2022-08-21T09:02:47.833Z,21.17
2022-08-21T09:03:47.857Z,21.22
2022-08-21T09:04:47.800Z,21.24
2022-08-21T09:05:47.794Z,21.27
2022-08-21T09:06:47.842Z,21.29
2022-08-21T09:07:47.788Z,21.29
2022-08-21T09:08:47.762Z,21.32
2022-08-21T09:09:47.798Z,21.33
2022-08-21T09:10:47.789Z,21.37
2022-08-21T09:11:47.729Z,21.40
2022-08-21T09:12:47.723Z,21.46
2022-08-21T09:13:47.706Z,21.52
2022-08-21T09:14:47.712Z,21.60
2022-08-21T09:15:47.719Z,21.66
2022-08-21T09:16:47.670Z,21.73
2022-08-21T09:17:47.676Z,21.79
2022-08-21T09:18:47.671Z,21.83
2022-08-21T09:19:47.645Z,21.82
2022-08-21T09:20:47.616Z,21.88
2022-08-21T09:21:47.649Z,21.88
2022-08-21T09:22:47.606Z,21.85
2022-08-21T09:23:47.587Z,21.89
2022-08-21T09:24:51.394Z,21.88
2022-08-21T09:25:47.603Z,21.92
2022-08-21T09:26:48.517Z,21.95
2022-08-21T09:27:47.557Z,21.95
2022-08-21T09:28:47.553Z,21.99
2022-08-21T09:29:47.560Z,22.02
2022-08-21T09:30:47.518Z,22.08
2022-08-21T09:31:47.515Z,22.07
2022-08-21T09:32:47.490Z,22.10
2022-08-21T09:33:47.496Z,22.13
2022-08-21T09:34:47.536Z,22.15
2022-08-21T09:35:47.475Z,22.18
2022-08-21T09:36:47.468Z,22.23
2022-08-21T09:37:47.465Z,22.26
2022-08-21T09:38:47.428Z,22.29
2022-08-21T09:39:48.906Z,22.32
2022-08-21T09:40:47.435Z,22.33
2022-08-21T09:41:47.413Z,22.35
2022-08-21T09:42:47.391Z,22.38
2022-08-21T09:43:47.411Z,22.38
2022-08-21T09:44:47.356Z,22.32
2022-08-21T09:45:47.381Z,22.30
2022-08-21T09:46:47.422Z,22.28
2022-08-21T09:47:47.340Z,22.30
2022-08-21T09:48:47.323Z,22.32
2022-08-21T09:49:47.353Z,22.33
2022-08-21T09:50:47.309Z,22.35
2022-08-21T09:51:47.321Z,22.38
2022-08-21T09:52:47.277Z,22.45
2022-08-21T09:53:47.286Z,22.48
2022-08-21T09:54:47.285Z,22.53
2022-08-21T09:55:47.243Z,22.55
2022-08-21T09:56:47.245Z,22.57
2022-08-21T09:57:50.177Z,22.57
2022-08-21T09:58:48.277Z,22.59
2022-08-21T09:59:47.214Z,22.62
2022-08-21T10:00:47.253Z,22.66
2022-08-21T10:01:47.169Z,22.70
2022-08-21T10:02:47.174Z,22.73
2022-08-21T10:03:47.144Z,22.81
2022-08-21T10:04:47.213Z,22.84
2022-08-21T10:05:47.140Z,22.88
2022-08-21T10:06:47.112Z,22.85
2022-08-21T10:07:47.118Z,22.78
2022-08-21T10:08:47.092Z,22.75
2022-08-21T10:09:47.091Z,22.70
2022-08-21T10:10:47.105Z,22.70
2022-08-21T10:11:47.099Z,22.70
2022-08-21T10:12:47.066Z,22.75
2022-08-21T10:13:47.051Z,22.76
2022-08-21T10:14:47.042Z,22.84
2022-08-21T10:15:47.039Z,22.90
2022-08-21T10:16:47.022Z,22.98
2022-08-21T10:17:46.992Z,23.06
2022-08-21T10:18:47.010Z,23.12
2022-08-21T10:19:47.646Z,23.18
2022-08-21T10:20:46.951Z,23.20
2022-08-21T10:21:46.995Z,23.24
2022-08-21T10:22:46.934Z,23.25
2022-08-21T10:23:46.939Z,23.28
2022-08-21T10:24:50.752Z,23.36
2022-08-21T10:25:50.502Z,23.40
2022-08-21T10:26:47.951Z,23.43
2022-08-21T10:27:46.887Z,23.47
2022-08-21T10:28:46.901Z,23.50
2022-08-21T10:29:46.899Z,23.58
2022-08-21T10:30:46.867Z,23.61
2022-08-21T10:31:47.544Z,23.65
2022-08-21T10:32:46.846Z,23.69
2022-08-21T10:33:46.817Z,23.71
2022-08-21T10:34:46.837Z,23.77
2022-08-21T10:35:46.800Z,23.83
2022-08-21T10:36:46.785Z,23.78
2022-08-21T10:37:46.783Z,23.69
2022-08-21T10:38:58.691Z,23.61
2022-08-21T10:39:49.345Z,23.51
2022-08-21T10:40:46.745Z,23.46
2022-08-21T10:41:46.752Z,23.44
2022-08-21T10:42:46.709Z,23.40
2022-08-21T10:43:46.723Z,23.39
2022-08-21T10:44:46.717Z,23.43
2022-08-21T10:45:46.713Z,23.46
2022-08-21T10:46:46.685Z,23.43
2022-08-21T10:47:46.686Z,23.44
2022-08-21T10:48:46.681Z,23.48
2022-08-21T10:49:46.651Z,23.51
2022-08-21T10:50:46.654Z,23.54
2022-08-21T10:51:46.647Z,23.58
2022-08-21T10:52:46.634Z,23.58
2022-08-21T10:53:46.662Z,23.54
2022-08-21T10:54:46.650Z,23.55
2022-08-21T10:55:46.606Z,23.58
2022-08-21T10:56:50.493Z,23.63
2022-08-21T10:57:47.593Z,23.71
2022-08-21T10:58:46.563Z,23.74
2022-08-21T10:59:46.543Z,23.76
2022-08-21T11:00:46.575Z,23.78
2022-08-21T11:01:46.532Z,23.81
2022-08-21T11:02:46.549Z,23.83
2022-08-21T11:03:46.537Z,23.86
2022-08-21T11:04:49.024Z,23.91
2022-08-21T11:05:50.517Z,23.93
2022-08-21T11:06:46.514Z,23.93
2022-08-21T11:07:46.455Z,23.95
2022-08-21T11:08:47.007Z,23.96
2022-08-21T11:09:46.473Z,23.98
2022-08-21T11:10:58.081Z,23.99
2022-08-21T11:11:54.680Z,24.01
2022-08-21T11:12:47.390Z,24.02
2022-08-21T11:13:46.433Z,23.98
2022-08-21T11:14:49.907Z,23.96
2022-08-21T11:15:46.407Z,23.92
2022-08-21T11:16:46.357Z,23.88
2022-08-21T11:17:46.332Z,23.84
2022-08-21T11:18:46.320Z,23.84
2022-08-21T11:19:46.355Z,23.84
2022-08-21T11:20:46.315Z,23.86
2022-08-21T11:21:46.330Z,23.86
2022-08-21T11:22:46.301Z,23.86
2022-08-21T11:23:46.262Z,23.84
2022-08-21T11:24:46.250Z,23.83
2022-08-21T11:25:46.246Z,23.76
2022-08-21T11:26:46.264Z,23.71
2022-08-21T11:27:47.221Z,23.68
2022-08-21T11:28:46.231Z,23.69
2022-08-21T11:29:46.216Z,23.74
2022-08-21T11:30:46.215Z,23.78
2022-08-21T11:31:46.217Z,23.81
2022-08-21T11:32:46.180Z,23.83
2022-08-21T11:33:46.155Z,23.84
2022-08-21T11:34:46.139Z,23.91
2022-08-21T11:35:46.136Z,23.99
2022-08-21T11:36:47.339Z,24.10
2022-08-21T11:37:46.145Z,24.18
2022-08-21T11:38:46.107Z,24.28
2022-08-21T11:39:46.145Z,24.36
2022-08-21T11:40:46.089Z,24.47
2022-08-21T11:41:46.099Z,24.55
2022-08-21T11:42:46.116Z,24.60
2022-08-21T11:43:46.062Z,24.63
2022-08-21T11:44:46.041Z,24.65
2022-08-21T11:45:46.029Z,24.66
2022-08-21T11:46:46.082Z,24.66
2022-08-21T11:47:46.043Z,24.65
2022-08-21T11:48:46.015Z,24.66
2022-08-21T11:49:46.041Z,24.61
2022-08-21T11:50:45.981Z,24.57
2022-08-21T11:51:45.966Z,24.51
2022-08-21T11:52:45.951Z,24.50
2022-08-21T11:53:45.944Z,24.53
2022-08-21T11:54:45.966Z,24.60
2022-08-21T11:55:45.973Z,24.69
2022-08-21T11:56:45.924Z,24.77
2022-08-21T11:57:45.893Z,24.86
2022-08-21T11:58:45.896Z,24.93
2022-08-21T11:59:45.916Z,24.98
2022-08-21T12:00:45.887Z,25.01
2022-08-21T12:01:45.953Z,25.01
2022-08-21T12:02:45.875Z,24.96
2022-08-21T12:03:45.829Z,24.89
2022-08-21T12:04:46.915Z,24.89
2022-08-21T12:05:45.841Z,24.91
2022-08-21T12:06:45.851Z,24.91
2022-08-21T12:07:45.777Z,24.93
2022-08-21T12:08:45.865Z,25.01
2022-08-21T12:09:45.801Z,25.06
2022-08-21T12:10:45.785Z,25.07
2022-08-21T12:11:45.749Z,25.08
2022-08-21T12:12:45.772Z,25.11
2022-08-21T12:13:45.732Z,25.14
2022-08-21T12:14:45.728Z,25.18
2022-08-21T12:15:45.709Z,25.23
2022-08-21T12:16:45.716Z,25.26
2022-08-21T12:17:45.700Z,25.28
2022-08-21T12:18:45.750Z,25.31
2022-08-21T12:19:46.610Z,25.32
2022-08-21T12:20:50.391Z,25.33
2022-08-21T12:21:46.634Z,25.35
2022-08-21T12:22:45.622Z,25.40
2022-08-21T12:23:46.640Z,25.44
2022-08-21T12:24:45.673Z,25.46
2022-08-21T12:25:45.632Z,25.51
2022-08-21T12:26:45.586Z,25.59
2022-08-21T12:27:45.573Z,25.68
2022-08-21T12:28:45.588Z,25.75
2022-08-21T12:29:45.623Z,25.85
2022-08-21T12:30:45.549Z,25.95
2022-08-21T12:31:45.530Z,26.06
2022-08-21T12:32:45.518Z,26.10
2022-08-21T12:33:45.525Z,26.16
2022-08-21T12:34:45.549Z,26.13
2022-08-21T12:35:45.508Z,26.13
2022-08-21T12:36:45.477Z,26.25
2022-08-21T12:37:45.475Z,26.45
2022-08-21T12:38:45.457Z,26.65
2022-08-21T12:39:45.485Z,26.83
2022-08-21T12:40:45.475Z,26.96
2022-08-21T12:41:45.439Z,27.17
2022-08-21T12:42:52.931Z,27.49
2022-08-21T12:43:46.419Z,27.82
2022-08-21T12:44:45.444Z,28.17
2022-08-21T12:45:45.406Z,28.48
2022-08-21T12:46:45.377Z,28.67
2022-08-21T12:47:45.386Z,28.86
2022-08-21T12:48:45.413Z,29.02
2022-08-21T12:49:45.333Z,29.17
2022-08-21T12:50:47.001Z,29.29
2022-08-21T12:51:45.353Z,29.24
2022-08-21T12:52:45.320Z,29.29